Hlavní strana
METAR-TAF:

METAR-TAF

Letiště :

Apalachicola, Florida, Spojené státy americké

zeměpisná šířka: 29-43-37N, zeměpisná délka: 085-01-29W, výška: 6 m

Aktuální stav počasí

Zpráva byla vytvořena před 42 minutami, v 00:53 UTC
Východojihovýchodní vítr 6 kt
Teplota 19°C
Vlhkost vzduchu 83%
Tlak 1022 hPa
Viditelnost: 16.1 km
Oblačno až skoro zataženo ve výšce 3000 ft
Zataženo ve výšce 10000 ft

METAR: KAAF 190053Z AUTO 11006KT 10SM BKN030 OVC100 19/16 A3019 RMK AO2 SLP223 T01890161

Čas: 20:35 (01:35 UTC)


TAF: chybějící

Stav a předpovědi počasí z více než 4 000 letišť (zprávy METAR a TAF).

Červené a žluté tečky na mapě představují dostupné meteorologické stanice.

Když kurzor umístíte na tečku, zobrazí se název stanice.

Pak kliknutím zobrazíte stav a předpověď počasí.

Chcete-li změnit mapu, kliknutím na zelené tlačítko se znaménkem +mapu přiblížíte, kliknutím na zelené tlačítko se znaménkem – mapu oddálíte a kliknutím na zelené šipky přejdete na sousední mapy.


METAR-TAF: